sensor_id;sensor_type;location;lat;lon;timestamp;P1;durP1;ratioP1;P2;durP2;ratioP2
61104;SDS011;46987;32.638;-115.438;2023-06-26T00:01:58;5.13;;;1.40;;
61104;SDS011;46987;32.638;-115.438;2023-06-26T00:04:25;6.30;;;1.60;;
61104;SDS011;46987;32.638;-115.438;2023-06-26T00:06:51;5.32;;;1.70;;
61104;SDS011;46987;32.638;-115.438;2023-06-26T00:09:18;5.10;;;1.70;;
61104;SDS011;46987;32.638;-115.438;2023-06-26T00:11:46;8.27;;;2.78;;
61104;SDS011;46987;32.638;-115.438;2023-06-26T00:14:13;6.68;;;1.98;;
61104;SDS011;46987;32.638;-115.438;2023-06-26T00:16:40;7.63;;;2.13;;
61104;SDS011;46987;32.638;-115.438;2023-06-26T00:19:08;6.15;;;2.13;;
61104;SDS011;46987;32.638;-115.438;2023-06-26T00:21:35;8.55;;;2.30;;
61104;SDS011;46987;32.638;-115.438;2023-06-26T00:24:01;7.97;;;2.22;;
61104;SDS011;46987;32.638;-115.438;2023-06-26T00:26:28;9.30;;;2.53;;
61104;SDS011;46987;32.638;-115.438;2023-06-26T00:28:58;8.25;;;2.50;;
61104;SDS011;46987;32.638;-115.438;2023-06-26T00:31:25;9.82;;;2.38;;
61104;SDS011;46987;32.638;-115.438;2023-06-26T00:33:52;10.95;;;2.50;;
61104;SDS011;46987;32.638;-115.438;2023-06-26T00:36:18;9.68;;;2.30;;
61104;SDS011;46987;32.638;-115.438;2023-06-26T00:38:45;6.70;;;1.77;;
61104;SDS011;46987;32.638;-115.438;2023-06-26T00:41:12;12.13;;;2.53;;
61104;SDS011;46987;32.638;-115.438;2023-06-26T00:43:38;7.68;;;2.40;;
61104;SDS011;46987;32.638;-115.438;2023-06-26T00:46:08;11.13;;;2.50;;
61104;SDS011;46987;32.638;-115.438;2023-06-26T00:48:35;7.82;;;2.78;;
61104;SDS011;46987;32.638;-115.438;2023-06-26T00:51:02;8.55;;;3.05;;
61104;SDS011;46987;32.638;-115.438;2023-06-26T00:53:28;4.47;;;1.88;;
61104;SDS011;46987;32.638;-115.438;2023-06-26T00:55:55;9.50;;;3.08;;
61104;SDS011;46987;32.638;-115.438;2023-06-26T00:58:22;7.25;;;2.88;;
61104;SDS011;46987;32.638;-115.438;2023-06-26T01:00:50;5.57;;;1.85;;
61104;SDS011;46987;32.638;-115.438;2023-06-26T01:03:20;8.82;;;2.13;;
61104;SDS011;46987;32.638;-115.438;2023-06-26T01:05:47;8.95;;;2.33;;
61104;SDS011;46987;32.638;-115.438;2023-06-26T01:08:17;7.65;;;2.50;;
61104;SDS011;46987;32.638;-115.438;2023-06-26T01:10:44;13.77;;;2.88;;
61104;SDS011;46987;32.638;-115.438;2023-06-26T01:13:11;7.55;;;2.33;;
61104;SDS011;46987;32.638;-115.438;2023-06-26T01:15:38;10.63;;;2.28;;
61104;SDS011;46987;32.638;-115.438;2023-06-26T01:18:06;7.65;;;2.38;;
61104;SDS011;46987;32.638;-115.438;2023-06-26T01:20:35;6.65;;;2.33;;
61104;SDS011;46987;32.638;-115.438;2023-06-26T01:23:03;10.45;;;2.35;;
61104;SDS011;46987;32.638;-115.438;2023-06-26T01:25:33;7.25;;;2.20;;
61104;SDS011;46987;32.638;-115.438;2023-06-26T01:28:09;6.40;;;2.15;;
61104;SDS011;46987;32.638;-115.438;2023-06-26T01:30:37;16.90;;;2.75;;
61104;SDS011;46987;32.638;-115.438;2023-06-26T01:33:04;11.55;;;3.03;;
61104;SDS011;46987;32.638;-115.438;2023-06-26T01:35:31;14.73;;;2.30;;
61104;SDS011;46987;32.638;-115.438;2023-06-26T01:38:11;8.60;;;2.33;;
61104;SDS011;46987;32.638;-115.438;2023-06-26T01:40:38;10.82;;;2.25;;
61104;SDS011;46987;32.638;-115.438;2023-06-26T01:43:05;11.15;;;2.60;;
61104;SDS011;46987;32.638;-115.438;2023-06-26T01:45:35;11.05;;;2.08;;
61104;SDS011;46987;32.638;-115.438;2023-06-26T01:48:02;12.00;;;2.45;;
61104;SDS011;46987;32.638;-115.438;2023-06-26T01:50:30;10.07;;;2.53;;
61104;SDS011;46987;32.638;-115.438;2023-06-26T01:52:59;10.93;;;3.00;;
61104;SDS011;46987;32.638;-115.438;2023-06-26T01:55:28;8.43;;;2.47;;
61104;SDS011;46987;32.638;-115.438;2023-06-26T01:57:59;12.87;;;2.37;;
61104;SDS011;46987;32.638;-115.438;2023-06-26T02:00:26;12.27;;;3.10;;
61104;SDS011;46987;32.638;-115.438;2023-06-26T02:02:55;7.90;;;2.60;;
61104;SDS011;46987;32.638;-115.438;2023-06-26T02:05:21;9.73;;;2.75;;
61104;SDS011;46987;32.638;-115.438;2023-06-26T02:07:49;10.52;;;2.58;;
61104;SDS011;46987;32.638;-115.438;2023-06-26T02:10:17;7.57;;;2.17;;
61104;SDS011;46987;32.638;-115.438;2023-06-26T02:12:44;11.45;;;2.55;;
61104;SDS011;46987;32.638;-115.438;2023-06-26T02:15:13;11.27;;;2.45;;
61104;SDS011;46987;32.638;-115.438;2023-06-26T02:17:39;10.43;;;2.67;;
61104;SDS011;46987;32.638;-115.438;2023-06-26T02:20:08;9.32;;;2.58;;
61104;SDS011;46987;32.638;-115.438;2023-06-26T02:22:36;11.20;;;2.60;;
61104;SDS011;46987;32.638;-115.438;2023-06-26T02:25:03;9.63;;;2.42;;
61104;SDS011;46987;32.638;-115.438;2023-06-26T02:27:32;11.63;;;2.50;;
61104;SDS011;46987;32.638;-115.438;2023-06-26T02:29:58;10.20;;;2.90;;
61104;SDS011;46987;32.638;-115.438;2023-06-26T02:32:25;8.52;;;2.45;;
61104;SDS011;46987;32.638;-115.438;2023-06-26T02:34:52;11.70;;;2.42;;
61104;SDS011;46987;32.638;-115.438;2023-06-26T02:37:21;8.82;;;1.92;;
61104;SDS011;46987;32.638;-115.438;2023-06-26T02:39:48;10.25;;;2.28;;
61104;SDS011;46987;32.638;-115.438;2023-06-26T02:42:15;8.32;;;2.35;;
61104;SDS011;46987;32.638;-115.438;2023-06-26T02:44:41;9.60;;;2.80;;
61104;SDS011;46987;32.638;-115.438;2023-06-26T02:47:10;6.65;;;2.17;;
61104;SDS011;46987;32.638;-115.438;2023-06-26T02:49:40;8.57;;;2.25;;
61104;SDS011;46987;32.638;-115.438;2023-06-26T02:52:07;8.00;;;2.45;;
61104;SDS011;46987;32.638;-115.438;2023-06-26T02:54:35;8.20;;;2.13;;
61104;SDS011;46987;32.638;-115.438;2023-06-26T02:57:04;9.52;;;2.65;;
61104;SDS011;46987;32.638;-115.438;2023-06-26T02:59:32;14.73;;;2.83;;
61104;SDS011;46987;32.638;-115.438;2023-06-26T03:01:59;12.23;;;2.63;;
61104;SDS011;46987;32.638;-115.438;2023-06-26T03:04:46;7.25;;;2.45;;
61104;SDS011;46987;32.638;-115.438;2023-06-26T03:07:14;9.75;;;2.88;;
61104;SDS011;46987;32.638;-115.438;2023-06-26T03:09:43;11.95;;;2.80;;
61104;SDS011;46987;32.638;-115.438;2023-06-26T03:12:10;7.13;;;2.50;;
61104;SDS011;46987;32.638;-115.438;2023-06-26T03:14:37;8.35;;;2.22;;
61104;SDS011;46987;32.638;-115.438;2023-06-26T03:17:03;9.52;;;2.50;;
61104;SDS011;46987;32.638;-115.438;2023-06-26T03:19:33;9.07;;;2.38;;
61104;SDS011;46987;32.638;-115.438;2023-06-26T03:22:15;7.68;;;2.45;;
61104;SDS011;46987;32.638;-115.438;2023-06-26T03:24:43;13.40;;;2.53;;
61104;SDS011;46987;32.638;-115.438;2023-06-26T03:27:10;9.45;;;2.55;;
61104;SDS011;46987;32.638;-115.438;2023-06-26T03:29:36;9.32;;;2.78;;
61104;SDS011;46987;32.638;-115.438;2023-06-26T03:32:04;8.65;;;2.65;;
61104;SDS011;46987;32.638;-115.438;2023-06-26T03:34:31;10.40;;;2.88;;
61104;SDS011;46987;32.638;-115.438;2023-06-26T03:36:57;10.00;;;2.40;;
61104;SDS011;46987;32.638;-115.438;2023-06-26T03:39:24;11.32;;;3.10;;
61104;SDS011;46987;32.638;-115.438;2023-06-26T03:41:53;7.90;;;2.47;;
61104;SDS011;46987;32.638;-115.438;2023-06-26T03:44:22;11.77;;;3.22;;
61104;SDS011;46987;32.638;-115.438;2023-06-26T03:46:49;11.18;;;3.00;;
61104;SDS011;46987;32.638;-115.438;2023-06-26T03:49:16;16.05;;;2.92;;
61104;SDS011;46987;32.638;-115.438;2023-06-26T03:51:44;16.15;;;3.58;;
61104;SDS011;46987;32.638;-115.438;2023-06-26T03:54:10;11.05;;;3.45;;
61104;SDS011;46987;32.638;-115.438;2023-06-26T03:56:37;11.43;;;3.78;;
61104;SDS011;46987;32.638;-115.438;2023-06-26T03:59:07;13.95;;;4.57;;
61104;SDS011;46987;32.638;-115.438;2023-06-26T04:01:35;13.13;;;3.92;;
61104;SDS011;46987;32.638;-115.438;2023-06-26T04:04:04;10.77;;;4.10;;
61104;SDS011;46987;32.638;-115.438;2023-06-26T04:06:32;9.85;;;3.08;;
61104;SDS011;46987;32.638;-115.438;2023-06-26T04:09:00;10.30;;;3.55;;
61104;SDS011;46987;32.638;-115.438;2023-06-26T04:11:27;10.70;;;2.97;;
61104;SDS011;46987;32.638;-115.438;2023-06-26T04:13:53;9.82;;;3.50;;
61104;SDS011;46987;32.638;-115.438;2023-06-26T04:16:22;13.32;;;3.33;;
61104;SDS011;46987;32.638;-115.438;2023-06-26T04:18:52;7.43;;;3.30;;
61104;SDS011;46987;32.638;-115.438;2023-06-26T04:21:19;8.32;;;3.15;;
61104;SDS011;46987;32.638;-115.438;2023-06-26T04:23:47;13.93;;;4.60;;
61104;SDS011;46987;32.638;-115.438;2023-06-26T04:26:13;11.10;;;4.43;;
61104;SDS011;46987;32.638;-115.438;2023-06-26T04:28:40;11.82;;;3.38;;
61104;SDS011;46987;32.638;-115.438;2023-06-26T04:31:07;12.82;;;3.90;;
61104;SDS011;46987;32.638;-115.438;2023-06-26T04:33:36;7.20;;;3.40;;
61104;SDS011;46987;32.638;-115.438;2023-06-26T04:36:03;13.02;;;3.55;;
61104;SDS011;46987;32.638;-115.438;2023-06-26T04:38:30;8.85;;;3.63;;
61104;SDS011;46987;32.638;-115.438;2023-06-26T04:40:57;11.48;;;3.70;;
61104;SDS011;46987;32.638;-115.438;2023-06-26T04:43:23;13.10;;;3.90;;
61104;SDS011;46987;32.638;-115.438;2023-06-26T04:45:50;15.32;;;4.03;;
61104;SDS011;46987;32.638;-115.438;2023-06-26T04:48:17;11.70;;;3.85;;
61104;SDS011;46987;32.638;-115.438;2023-06-26T04:50:45;13.32;;;4.80;;
61104;SDS011;46987;32.638;-115.438;2023-06-26T04:53:18;9.95;;;3.70;;
61104;SDS011;46987;32.638;-115.438;2023-06-26T04:55:45;8.85;;;3.53;;
61104;SDS011;46987;32.638;-115.438;2023-06-26T04:58:12;19.90;;;4.50;;
61104;SDS011;46987;32.638;-115.438;2023-06-26T05:00:38;8.65;;;3.53;;
61104;SDS011;46987;32.638;-115.438;2023-06-26T05:03:08;12.95;;;4.20;;
61104;SDS011;46987;32.638;-115.438;2023-06-26T05:05:35;13.35;;;3.88;;
61104;SDS011;46987;32.638;-115.438;2023-06-26T05:08:15;11.27;;;4.10;;
61104;SDS011;46987;32.638;-115.438;2023-06-26T05:10:42;14.48;;;4.50;;
61104;SDS011;46987;32.638;-115.438;2023-06-26T05:13:08;18.25;;;5.07;;
61104;SDS011;46987;32.638;-115.438;2023-06-26T05:15:35;22.05;;;5.50;;
61104;SDS011;46987;32.638;-115.438;2023-06-26T05:18:02;12.90;;;4.22;;
61104;SDS011;46987;32.638;-115.438;2023-06-26T05:20:28;21.70;;;5.20;;
61104;SDS011;46987;32.638;-115.438;2023-06-26T05:22:55;15.10;;;4.38;;
61104;SDS011;46987;32.638;-115.438;2023-06-26T05:25:24;18.95;;;4.85;;
61104;SDS011;46987;32.638;-115.438;2023-06-26T05:27:52;16.15;;;5.07;;
61104;SDS011;46987;32.638;-115.438;2023-06-26T05:30:19;13.63;;;4.50;;
61104;SDS011;46987;32.638;-115.438;2023-06-26T05:32:46;13.40;;;4.25;;
61104;SDS011;46987;32.638;-115.438;2023-06-26T05:35:14;11.43;;;4.03;;
61104;SDS011;46987;32.638;-115.438;2023-06-26T05:37:41;10.73;;;4.18;;
61104;SDS011;46987;32.638;-115.438;2023-06-26T05:40:09;9.93;;;3.80;;
61104;SDS011;46987;32.638;-115.438;2023-06-26T05:42:38;7.70;;;3.60;;
61104;SDS011;46987;32.638;-115.438;2023-06-26T05:45:05;9.55;;;3.60;;
61104;SDS011;46987;32.638;-115.438;2023-06-26T05:47:32;12.32;;;3.80;;
61104;SDS011;46987;32.638;-115.438;2023-06-26T05:49:59;14.60;;;4.00;;
61104;SDS011;46987;32.638;-115.438;2023-06-26T05:52:26;11.38;;;4.20;;
61104;SDS011;46987;32.638;-115.438;2023-06-26T05:54:53;9.82;;;3.70;;
61104;SDS011;46987;32.638;-115.438;2023-06-26T05:57:21;13.38;;;4.35;;
61104;SDS011;46987;32.638;-115.438;2023-06-26T05:59:50;10.10;;;3.80;;
61104;SDS011;46987;32.638;-115.438;2023-06-26T06:02:17;12.63;;;4.38;;
61104;SDS011;46987;32.638;-115.438;2023-06-26T06:04:46;11.05;;;4.20;;
61104;SDS011;46987;32.638;-115.438;2023-06-26T06:07:12;13.75;;;3.67;;
61104;SDS011;46987;32.638;-115.438;2023-06-26T06:09:39;13.00;;;3.95;;
61104;SDS011;46987;32.638;-115.438;2023-06-26T06:12:06;8.50;;;3.30;;
61104;SDS011;46987;32.638;-115.438;2023-06-26T06:14:33;13.85;;;3.70;;
61104;SDS011;46987;32.638;-115.438;2023-06-26T06:17:01;11.23;;;4.18;;
61104;SDS011;46987;32.638;-115.438;2023-06-26T06:19:28;8.38;;;3.83;;
61104;SDS011;46987;32.638;-115.438;2023-06-26T06:21:55;15.05;;;3.75;;
61104;SDS011;46987;32.638;-115.438;2023-06-26T06:24:21;6.38;;;3.47;;
61104;SDS011;46987;32.638;-115.438;2023-06-26T06:26:48;16.40;;;3.58;;
61104;SDS011;46987;32.638;-115.438;2023-06-26T06:29:15;8.82;;;3.42;;
61104;SDS011;46987;32.638;-115.438;2023-06-26T06:31:41;13.60;;;4.15;;
61104;SDS011;46987;32.638;-115.438;2023-06-26T06:34:10;9.30;;;3.67;;
61104;SDS011;46987;32.638;-115.438;2023-06-26T06:36:38;10.07;;;3.50;;
61104;SDS011;46987;32.638;-115.438;2023-06-26T06:39:04;13.63;;;3.38;;
61104;SDS011;46987;32.638;-115.438;2023-06-26T06:41:31;9.55;;;3.72;;
61104;SDS011;46987;32.638;-115.438;2023-06-26T06:43:58;8.35;;;3.70;;
61104;SDS011;46987;32.638;-115.438;2023-06-26T06:46:24;13.13;;;3.63;;
61104;SDS011;46987;32.638;-115.438;2023-06-26T06:48:53;10.63;;;3.85;;
61104;SDS011;46987;32.638;-115.438;2023-06-26T06:51:21;7.28;;;3.50;;
61104;SDS011;46987;32.638;-115.438;2023-06-26T06:53:48;9.48;;;3.75;;
61104;SDS011;46987;32.638;-115.438;2023-06-26T06:56:14;8.13;;;4.00;;
61104;SDS011;46987;32.638;-115.438;2023-06-26T06:58:41;10.15;;;4.03;;
61104;SDS011;46987;32.638;-115.438;2023-06-26T07:01:09;7.57;;;3.30;;
61104;SDS011;46987;32.638;-115.438;2023-06-26T07:03:35;7.43;;;4.00;;
61104;SDS011;46987;32.638;-115.438;2023-06-26T07:06:02;9.95;;;3.92;;
61104;SDS011;46987;32.638;-115.438;2023-06-26T07:08:31;10.07;;;3.83;;
61104;SDS011;46987;32.638;-115.438;2023-06-26T07:10:57;8.38;;;4.30;;
61104;SDS011;46987;32.638;-115.438;2023-06-26T07:13:24;10.95;;;3.95;;
61104;SDS011;46987;32.638;-115.438;2023-06-26T07:15:51;9.35;;;3.75;;
61104;SDS011;46987;32.638;-115.438;2023-06-26T07:18:17;8.18;;;3.90;;
61104;SDS011;46987;32.638;-115.438;2023-06-26T07:20:44;10.00;;;4.28;;
61104;SDS011;46987;32.638;-115.438;2023-06-26T07:23:12;8.30;;;4.05;;
61104;SDS011;46987;32.638;-115.438;2023-06-26T07:25:41;11.25;;;4.35;;
61104;SDS011;46987;32.638;-115.438;2023-06-26T07:28:10;8.13;;;4.28;;
61104;SDS011;46987;32.638;-115.438;2023-06-26T07:30:37;9.98;;;4.60;;
61104;SDS011;46987;32.638;-115.438;2023-06-26T07:33:04;7.93;;;4.15;;
61104;SDS011;46987;32.638;-115.438;2023-06-26T07:35:31;10.63;;;4.47;;
61104;SDS011;46987;32.638;-115.438;2023-06-26T07:37:58;10.57;;;4.50;;
61104;SDS011;46987;32.638;-115.438;2023-06-26T07:40:26;9.40;;;4.72;;
61104;SDS011;46987;32.638;-115.438;2023-06-26T07:42:55;9.02;;;4.10;;
61104;SDS011;46987;32.638;-115.438;2023-06-26T07:45:24;10.50;;;4.50;;
61104;SDS011;46987;32.638;-115.438;2023-06-26T07:47:51;8.20;;;4.30;;
61104;SDS011;46987;32.638;-115.438;2023-06-26T07:50:18;10.30;;;4.68;;
61104;SDS011;46987;32.638;-115.438;2023-06-26T07:52:48;9.60;;;4.47;;
61104;SDS011;46987;32.638;-115.438;2023-06-26T07:55:15;9.48;;;4.15;;
61104;SDS011;46987;32.638;-115.438;2023-06-26T07:57:41;11.02;;;4.05;;
61104;SDS011;46987;32.638;-115.438;2023-06-26T08:00:11;9.98;;;5.38;;
61104;SDS011;46987;32.638;-115.438;2023-06-26T08:02:41;11.68;;;5.30;;
61104;SDS011;46987;32.638;-115.438;2023-06-26T08:05:07;9.02;;;5.07;;
61104;SDS011;46987;32.638;-115.438;2023-06-26T08:07:34;8.32;;;4.40;;
61104;SDS011;46987;32.638;-115.438;2023-06-26T08:10:01;9.50;;;4.90;;
61104;SDS011;46987;32.638;-115.438;2023-06-26T08:12:28;9.15;;;4.35;;
61104;SDS011;46987;32.638;-115.438;2023-06-26T08:14:55;9.95;;;4.43;;
61104;SDS011;46987;32.638;-115.438;2023-06-26T08:17:23;10.95;;;4.32;;
61104;SDS011;46987;32.638;-115.438;2023-06-26T08:19:49;10.82;;;4.55;;
61104;SDS011;46987;32.638;-115.438;2023-06-26T08:22:16;9.48;;;4.20;;
61104;SDS011;46987;32.638;-115.438;2023-06-26T08:24:43;10.32;;;4.68;;
61104;SDS011;46987;32.638;-115.438;2023-06-26T08:27:10;11.20;;;4.43;;
61104;SDS011;46987;32.638;-115.438;2023-06-26T08:29:37;9.95;;;4.32;;
61104;SDS011;46987;32.638;-115.438;2023-06-26T08:32:04;13.40;;;4.50;;
61104;SDS011;46987;32.638;-115.438;2023-06-26T08:34:32;11.35;;;3.95;;
61104;SDS011;46987;32.638;-115.438;2023-06-26T08:36:59;9.80;;;4.45;;
61104;SDS011;46987;32.638;-115.438;2023-06-26T08:39:25;11.65;;;3.72;;
61104;SDS011;46987;32.638;-115.438;2023-06-26T08:41:52;8.75;;;3.60;;
61104;SDS011;46987;32.638;-115.438;2023-06-26T08:44:19;8.18;;;3.55;;
61104;SDS011;46987;32.638;-115.438;2023-06-26T08:46:50;8.50;;;3.80;;
61104;SDS011;46987;32.638;-115.438;2023-06-26T08:49:20;7.28;;;3.33;;
61104;SDS011;46987;32.638;-115.438;2023-06-26T08:51:50;6.80;;;3.17;;
61104;SDS011;46987;32.638;-115.438;2023-06-26T08:54:18;10.57;;;3.70;;
61104;SDS011;46987;32.638;-115.438;2023-06-26T08:56:47;8.18;;;3.35;;
61104;SDS011;46987;32.638;-115.438;2023-06-26T08:59:16;5.88;;;2.40;;
61104;SDS011;46987;32.638;-115.438;2023-06-26T09:01:42;8.32;;;3.03;;
61104;SDS011;46987;32.638;-115.438;2023-06-26T09:04:09;10.00;;;2.85;;
61104;SDS011;46987;32.638;-115.438;2023-06-26T09:06:36;15.93;;;3.75;;
61104;SDS011;46987;32.638;-115.438;2023-06-26T09:09:04;6.65;;;2.50;;
61104;SDS011;46987;32.638;-115.438;2023-06-26T09:11:31;9.57;;;3.00;;
61104;SDS011;46987;32.638;-115.438;2023-06-26T09:13:58;13.57;;;3.35;;
61104;SDS011;46987;32.638;-115.438;2023-06-26T09:16:25;7.60;;;3.00;;
61104;SDS011;46987;32.638;-115.438;2023-06-26T09:18:52;5.03;;;2.78;;
61104;SDS011;46987;32.638;-115.438;2023-06-26T09:21:19;7.28;;;2.55;;
61104;SDS011;46987;32.638;-115.438;2023-06-26T09:23:46;7.65;;;2.70;;
61104;SDS011;46987;32.638;-115.438;2023-06-26T09:26:14;8.20;;;2.67;;
61104;SDS011;46987;32.638;-115.438;2023-06-26T09:28:42;10.32;;;2.50;;
61104;SDS011;46987;32.638;-115.438;2023-06-26T09:31:09;12.13;;;3.28;;
61104;SDS011;46987;32.638;-115.438;2023-06-26T09:33:37;6.35;;;2.33;;
61104;SDS011;46987;32.638;-115.438;2023-06-26T09:36:05;8.00;;;2.92;;
61104;SDS011;46987;32.638;-115.438;2023-06-26T09:38:32;10.18;;;2.70;;
61104;SDS011;46987;32.638;-115.438;2023-06-26T09:40:59;12.57;;;2.95;;
61104;SDS011;46987;32.638;-115.438;2023-06-26T09:43:28;13.27;;;2.70;;
61104;SDS011;46987;32.638;-115.438;2023-06-26T09:45:54;12.73;;;3.05;;
61104;SDS011;46987;32.638;-115.438;2023-06-26T09:48:21;14.73;;;2.58;;
61104;SDS011;46987;32.638;-115.438;2023-06-26T09:50:48;11.10;;;2.70;;
61104;SDS011;46987;32.638;-115.438;2023-06-26T09:53:15;12.30;;;2.70;;
61104;SDS011;46987;32.638;-115.438;2023-06-26T09:55:44;10.45;;;2.40;;
61104;SDS011;46987;32.638;-115.438;2023-06-26T09:58:11;8.68;;;2.40;;
61104;SDS011;46987;32.638;-115.438;2023-06-26T10:00:43;11.80;;;2.90;;
61104;SDS011;46987;32.638;-115.438;2023-06-26T10:03:10;10.43;;;2.67;;
61104;SDS011;46987;32.638;-115.438;2023-06-26T10:05:37;11.65;;;2.92;;
61104;SDS011;46987;32.638;-115.438;2023-06-26T10:08:04;12.82;;;2.88;;
61104;SDS011;46987;32.638;-115.438;2023-06-26T10:10:32;15.18;;;3.22;;
61104;SDS011;46987;32.638;-115.438;2023-06-26T10:13:01;16.92;;;3.17;;
61104;SDS011;46987;32.638;-115.438;2023-06-26T10:15:30;16.75;;;4.30;;
61104;SDS011;46987;32.638;-115.438;2023-06-26T10:17:59;13.20;;;2.95;;
61104;SDS011;46987;32.638;-115.438;2023-06-26T10:20:26;19.50;;;3.05;;
61104;SDS011;46987;32.638;-115.438;2023-06-26T10:22:55;13.25;;;3.20;;
61104;SDS011;46987;32.638;-115.438;2023-06-26T10:25:25;10.95;;;2.35;;
61104;SDS011;46987;32.638;-115.438;2023-06-26T10:27:53;8.45;;;2.20;;
61104;SDS011;46987;32.638;-115.438;2023-06-26T10:30:22;8.68;;;2.53;;
61104;SDS011;46987;32.638;-115.438;2023-06-26T10:32:49;14.52;;;2.67;;
61104;SDS011;46987;32.638;-115.438;2023-06-26T10:35:18;10.65;;;1.95;;
61104;SDS011;46987;32.638;-115.438;2023-06-26T10:37:45;11.25;;;1.73;;
61104;SDS011;46987;32.638;-115.438;2023-06-26T10:40:13;10.70;;;2.45;;
61104;SDS011;46987;32.638;-115.438;2023-06-26T10:42:40;9.38;;;1.85;;
61104;SDS011;46987;32.638;-115.438;2023-06-26T10:45:11;7.15;;;1.88;;
61104;SDS011;46987;32.638;-115.438;2023-06-26T10:47:40;9.88;;;2.10;;
61104;SDS011;46987;32.638;-115.438;2023-06-26T10:50:23;9.93;;;1.70;;
61104;SDS011;46987;32.638;-115.438;2023-06-26T10:53:09;11.27;;;1.83;;
61104;SDS011;46987;32.638;-115.438;2023-06-26T10:55:36;4.72;;;1.30;;
61104;SDS011;46987;32.638;-115.438;2023-06-26T10:58:03;8.07;;;1.40;;
61104;SDS011;46987;32.638;-115.438;2023-06-26T11:00:30;12.27;;;1.83;;
61104;SDS011;46987;32.638;-115.438;2023-06-26T11:02:57;10.57;;;1.40;;
61104;SDS011;46987;32.638;-115.438;2023-06-26T11:05:32;6.28;;;1.90;;
61104;SDS011;46987;32.638;-115.438;2023-06-26T11:08:04;6.32;;;1.42;;
61104;SDS011;46987;32.638;-115.438;2023-06-26T11:13:12;4.90;;;1.67;;
61104;SDS011;46987;32.638;-115.438;2023-06-26T11:15:39;6.72;;;1.77;;
61104;SDS011;46987;32.638;-115.438;2023-06-26T11:18:09;6.40;;;1.20;;
61104;SDS011;46987;32.638;-115.438;2023-06-26T11:20:37;7.65;;;1.75;;
61104;SDS011;46987;32.638;-115.438;2023-06-26T11:23:04;7.13;;;1.48;;
61104;SDS011;46987;32.638;-115.438;2023-06-26T11:25:35;7.35;;;1.77;;
61104;SDS011;46987;32.638;-115.438;2023-06-26T11:28:02;8.95;;;1.48;;
61104;SDS011;46987;32.638;-115.438;2023-06-26T11:30:30;8.45;;;2.08;;
61104;SDS011;46987;32.638;-115.438;2023-06-26T11:33:02;8.40;;;1.67;;
61104;SDS011;46987;32.638;-115.438;2023-06-26T11:35:30;6.15;;;1.45;;
61104;SDS011;46987;32.638;-115.438;2023-06-26T11:37:58;9.20;;;1.70;;
61104;SDS011;46987;32.638;-115.438;2023-06-26T11:40:27;5.65;;;1.73;;
61104;SDS011;46987;32.638;-115.438;2023-06-26T11:42:57;8.63;;;1.80;;
61104;SDS011;46987;32.638;-115.438;2023-06-26T11:45:24;4.60;;;1.52;;
61104;SDS011;46987;32.638;-115.438;2023-06-26T11:47:51;7.43;;;1.50;;
61104;SDS011;46987;32.638;-115.438;2023-06-26T11:50:17;10.88;;;2.53;;
61104;SDS011;46987;32.638;-115.438;2023-06-26T11:52:44;5.88;;;1.48;;
61104;SDS011;46987;32.638;-115.438;2023-06-26T11:55:13;5.25;;;1.27;;
61104;SDS011;46987;32.638;-115.438;2023-06-26T11:57:40;5.25;;;1.50;;
61104;SDS011;46987;32.638;-115.438;2023-06-26T12:00:13;5.68;;;1.55;;
61104;SDS011;46987;32.638;-115.438;2023-06-26T12:02:40;5.85;;;1.15;;
61104;SDS011;46987;32.638;-115.438;2023-06-26T12:05:07;6.03;;;1.40;;
61104;SDS011;46987;32.638;-115.438;2023-06-26T12:07:33;4.78;;;1.27;;
61104;SDS011;46987;32.638;-115.438;2023-06-26T12:10:02;7.93;;;1.10;;
61104;SDS011;46987;32.638;-115.438;2023-06-26T12:12:32;5.78;;;1.70;;
61104;SDS011;46987;32.638;-115.438;2023-06-26T12:14:59;4.25;;;1.60;;
61104;SDS011;46987;32.638;-115.438;2023-06-26T12:17:26;5.57;;;1.27;;
61104;SDS011;46987;32.638;-115.438;2023-06-26T12:19:53;6.88;;;1.20;;
61104;SDS011;46987;32.638;-115.438;2023-06-26T12:22:20;6.82;;;1.45;;
61104;SDS011;46987;32.638;-115.438;2023-06-26T12:24:46;7.18;;;1.55;;
61104;SDS011;46987;32.638;-115.438;2023-06-26T12:27:14;4.35;;;1.15;;
61104;SDS011;46987;32.638;-115.438;2023-06-26T12:29:46;7.25;;;1.60;;
61104;SDS011;46987;32.638;-115.438;2023-06-26T12:32:15;7.10;;;1.55;;
61104;SDS011;46987;32.638;-115.438;2023-06-26T12:34:46;6.72;;;1.50;;
61104;SDS011;46987;32.638;-115.438;2023-06-26T12:37:13;6.97;;;1.90;;
61104;SDS011;46987;32.638;-115.438;2023-06-26T12:39:46;11.05;;;2.55;;
61104;SDS011;46987;32.638;-115.438;2023-06-26T12:42:14;9.60;;;2.20;;
61104;SDS011;46987;32.638;-115.438;2023-06-26T12:44:42;12.13;;;2.00;;
61104;SDS011;46987;32.638;-115.438;2023-06-26T12:47:09;10.38;;;2.10;;
61104;SDS011;46987;32.638;-115.438;2023-06-26T12:49:39;9.88;;;1.92;;
61104;SDS011;46987;32.638;-115.438;2023-06-26T12:52:06;7.40;;;1.52;;
61104;SDS011;46987;32.638;-115.438;2023-06-26T12:54:33;6.00;;;1.60;;
61104;SDS011;46987;32.638;-115.438;2023-06-26T12:57:01;10.35;;;2.45;;
61104;SDS011;46987;32.638;-115.438;2023-06-26T12:59:28;11.20;;;2.10;;
61104;SDS011;46987;32.638;-115.438;2023-06-26T13:01:56;8.60;;;2.00;;
61104;SDS011;46987;32.638;-115.438;2023-06-26T13:04:23;8.27;;;1.38;;
61104;SDS011;46987;32.638;-115.438;2023-06-26T13:06:50;8.88;;;1.55;;
61104;SDS011;46987;32.638;-115.438;2023-06-26T13:09:17;8.95;;;1.77;;
61104;SDS011;46987;32.638;-115.438;2023-06-26T13:11:44;8.48;;;2.30;;
61104;SDS011;46987;32.638;-115.438;2023-06-26T13:14:11;7.15;;;1.83;;
61104;SDS011;46987;32.638;-115.438;2023-06-26T13:16:37;6.53;;;1.95;;
61104;SDS011;46987;32.638;-115.438;2023-06-26T13:19:08;6.90;;;1.92;;
61104;SDS011;46987;32.638;-115.438;2023-06-26T13:21:35;6.80;;;1.60;;
61104;SDS011;46987;32.638;-115.438;2023-06-26T13:24:02;5.00;;;1.70;;
61104;SDS011;46987;32.638;-115.438;2023-06-26T13:26:30;6.97;;;1.85;;
61104;SDS011;46987;32.638;-115.438;2023-06-26T13:28:58;8.80;;;2.13;;
61104;SDS011;46987;32.638;-115.438;2023-06-26T13:31:25;6.70;;;1.85;;
61104;SDS011;46987;32.638;-115.438;2023-06-26T13:33:51;6.82;;;2.00;;
61104;SDS011;46987;32.638;-115.438;2023-06-26T13:36:20;6.88;;;2.25;;
61104;SDS011;46987;32.638;-115.438;2023-06-26T13:38:47;9.23;;;1.90;;
61104;SDS011;46987;32.638;-115.438;2023-06-26T13:41:21;8.95;;;1.80;;
61104;SDS011;46987;32.638;-115.438;2023-06-26T13:43:48;11.57;;;2.17;;
61104;SDS011;46987;32.638;-115.438;2023-06-26T13:46:15;8.85;;;2.30;;
61104;SDS011;46987;32.638;-115.438;2023-06-26T13:48:43;9.55;;;1.92;;
61104;SDS011;46987;32.638;-115.438;2023-06-26T13:51:10;6.38;;;1.95;;
61104;SDS011;46987;32.638;-115.438;2023-06-26T13:53:40;11.63;;;2.15;;
61104;SDS011;46987;32.638;-115.438;2023-06-26T13:56:07;14.88;;;3.00;;
61104;SDS011;46987;32.638;-115.438;2023-06-26T13:58:35;9.50;;;2.03;;
61104;SDS011;46987;32.638;-115.438;2023-06-26T14:01:02;7.63;;;2.17;;
61104;SDS011;46987;32.638;-115.438;2023-06-26T14:03:30;9.98;;;2.13;;
61104;SDS011;46987;32.638;-115.438;2023-06-26T14:05:59;11.57;;;2.00;;
61104;SDS011;46987;32.638;-115.438;2023-06-26T14:08:26;6.53;;;2.00;;
61104;SDS011;46987;32.638;-115.438;2023-06-26T14:10:57;9.15;;;2.13;;